Time;durP1;ratioP1;P1;durP2;ratioP2;P2;SDS_P1;SDS_P2;PMS_P1;PMS_P2;Temp;Humidity;BMP_temperature;BMP_pressure;BME280_temperature;BME280_humidity;BME280_pressure;Samples;Min_cycle;Max_cycle;Signal;HPM_P1;HPM_P2
2022/05/30 00:00:40;;;;;;;0.30;0.20;;;7.60;99.90;;;;;;5086970;28;20466;-89
2022/05/30 00:03:08;;;;;;;0.30;0.10;;;7.60;99.90;;;;;;5090311;28;20997;-89
2022/05/30 00:05:36;;;;;;;0.30;0.20;;;7.60;99.90;;;;;;5100402;28;20459;-89
2022/05/30 00:08:05;;;;;;;0.30;0.20;;;7.50;99.90;;;;;;5113715;28;20431;-90
2022/05/30 00:10:33;;;;;;;0.30;0.10;;;7.40;99.90;;;;;;5114464;28;20458;-90
2022/05/30 00:13:01;;;;;;;0.30;0.10;;;7.30;99.90;;;;;;5112288;28;20443;-90
2022/05/30 00:15:29;;;;;;;0.30;0.10;;;7.30;99.90;;;;;;5090868;28;20495;-89
2022/05/30 00:17:57;;;;;;;0.30;0.20;;;7.30;99.90;;;;;;5095752;28;20452;-89
2022/05/30 00:20:26;;;;;;;0.30;0.20;;;7.20;99.90;;;;;;5111415;28;20438;-90
2022/05/30 00:22:53;;;;;;;0.30;0.20;;;7.30;99.90;;;;;;5098507;28;20578;-90
2022/05/30 00:25:22;;;;;;;0.30;0.30;;;7.30;99.90;;;;;;5108889;28;20454;-90
2022/05/30 00:27:50;;;;;;;0.30;0.10;;;7.30;99.90;;;;;;5104243;28;20456;-90
2022/05/30 00:30:19;;;;;;;0.40;0.30;;;7.30;99.90;;;;;;5087594;28;20450;-90
2022/05/30 00:32:46;;;;;;;0.30;0.20;;;7.30;99.90;;;;;;5084871;28;20470;-89
2022/05/30 00:35:15;;;;;;;0.30;0.20;;;7.40;99.90;;;;;;5088753;28;20451;-91
2022/05/30 00:37:43;;;;;;;0.30;0.20;;;7.30;99.90;;;;;;5086936;28;20454;-91
2022/05/30 00:40:12;;;;;;;0.30;0.20;;;7.20;99.90;;;;;;5089065;28;20450;-89
2022/05/30 00:42:41;;;;;;;0.30;0.20;;;7.20;99.90;;;;;;5091486;28;20477;-89
2022/05/30 00:45:10;;;;;;;0.30;0.20;;;7.10;99.90;;;;;;5091199;28;20451;-89
2022/05/30 00:47:38;;;;;;;0.30;0.17;;;7.10;99.90;;;;;;5087817;28;20435;-89
2022/05/30 00:50:08;;;;;;;0.30;0.10;;;7.10;99.90;;;;;;5085739;28;20552;-90
2022/05/30 00:52:39;;;;;;;0.30;0.13;;;7.00;99.90;;;;;;5085972;28;20443;-90
2022/05/30 00:55:10;;;;;;;0.30;0.17;;;7.00;99.90;;;;;;5085248;28;20465;-91
2022/05/30 00:57:39;;;;;;;0.30;0.10;;;7.00;99.90;;;;;;5087897;28;20537;-92
2022/05/30 01:00:11;;;;;;;0.30;0.20;;;6.90;99.90;;;;;;5086951;28;20465;-90
2022/05/30 01:02:41;;;;;;;0.30;0.10;;;6.90;99.90;;;;;;5084386;28;20482;-92
2022/05/30 01:07:57;;;;;;;0.30;0.10;;;6.90;99.90;;;;;;5083864;28;20444;-91
2022/05/30 01:10:25;;;;;;;0.30;0.10;;;6.80;99.90;;;;;;5090131;28;20466;-91
2022/05/30 01:12:55;;;;;;;0.30;0.13;;;6.70;99.90;;;;;;5079544;28;20458;-92
2022/05/30 01:15:26;;;;;;;0.30;0.20;;;6.70;99.90;;;;;;5085132;28;20936;-92
2022/05/30 01:17:59;;;;;;;0.30;0.10;;;6.60;99.90;;;;;;5082354;28;21036;-91
2022/05/30 01:20:35;;;;;;;0.30;0.10;;;6.50;99.90;;;;;;5086318;28;20986;-92
2022/05/30 01:23:32;;;;;;;0.30;0.10;;;6.50;99.90;;;;;;5086123;28;21164;-92
2022/05/30 01:26:29;;;;;;;0.30;0.10;;;6.50;99.90;;;;;;5089896;28;20651;-92
2022/05/30 01:29:02;;;;;;;0.30;0.20;;;6.60;99.90;;;;;;5080083;28;20468;-92
2022/05/30 01:31:31;;;;;;;0.30;0.10;;;6.80;99.90;;;;;;5080250;28;20457;-92
2022/05/30 01:33:58;;;;;;;0.30;0.20;;;6.80;99.90;;;;;;5085877;28;20477;-91
2022/05/30 01:36:28;;;;;;;0.30;0.20;;;6.90;99.90;;;;;;5088120;28;20458;-91
2022/05/30 01:38:56;;;;;;;0.30;0.20;;;6.90;99.90;;;;;;5085929;28;20494;-91
2022/05/30 01:41:24;;;;;;;0.30;0.10;;;6.90;99.90;;;;;;5084850;28;20459;-91
2022/05/30 01:43:51;;;;;;;0.30;0.10;;;7.00;99.90;;;;;;5084150;28;20819;-91
2022/05/30 01:46:23;;;;;;;0.30;0.10;;;7.10;99.90;;;;;;5082419;28;20953;-91
2022/05/30 01:48:51;;;;;;;0.30;0.10;;;7.20;99.90;;;;;;5085955;28;20477;-91
2022/05/30 01:51:20;;;;;;;0.30;0.10;;;7.20;99.90;;;;;;5082112;28;20471;-91
2022/05/30 01:53:48;;;;;;;0.30;0.20;;;7.30;99.90;;;;;;5085399;28;20443;-91
2022/05/30 01:56:15;;;;;;;0.30;0.20;;;7.50;99.90;;;;;;5082785;28;20511;-90
2022/05/30 01:58:42;;;;;;;0.30;0.20;;;7.40;99.90;;;;;;5088562;28;20976;-91
2022/05/30 02:01:16;;;;;;;0.30;0.10;;;7.60;99.90;;;;;;5085481;28;20991;-89
2022/05/30 02:03:45;;;;;;;0.30;0.10;;;7.60;99.90;;;;;;5080144;28;20486;-90
2022/05/30 02:06:12;;;;;;;0.30;0.20;;;7.60;99.90;;;;;;5084957;28;20950;-90
2022/05/30 02:08:40;;;;;;;0.30;0.10;;;7.60;99.90;;;;;;5085328;28;20461;-90
2022/05/30 02:11:08;;;;;;;0.30;0.10;;;7.60;99.90;;;;;;5084058;28;20511;-90
2022/05/30 02:13:35;;;;;;;0.30;0.10;;;7.70;99.90;;;;;;5090963;28;20456;-91
2022/05/30 02:18:49;;;;;;;0.30;0.20;;;7.70;99.90;;;;;;5085329;28;20446;-91
2022/05/30 02:21:16;;;;;;;0.30;0.20;;;7.80;99.90;;;;;;5084095;28;20901;-90
2022/05/30 02:23:44;;;;;;;0.30;0.10;;;7.80;99.90;;;;;;5082421;28;20490;-91
2022/05/30 02:26:11;;;;;;;0.30;0.17;;;7.90;99.90;;;;;;5087037;28;20458;-91
2022/05/30 02:28:38;;;;;;;0.30;0.17;;;8.00;99.90;;;;;;5086931;28;20446;-89
2022/05/30 02:31:05;;;;;;;0.30;0.20;;;8.10;99.90;;;;;;5100431;28;20725;-91
2022/05/30 02:39:03;;;;;;;0.30;0.10;;;8.20;99.90;;;;;;5115341;28;20433;-91
2022/05/30 02:41:30;;;;;;;0.30;0.20;;;8.10;99.90;;;;;;5112933;28;20695;-89
2022/05/30 02:43:58;;;;;;;0.30;0.10;;;8.10;99.90;;;;;;5111782;28;20525;-91
2022/05/30 02:46:25;;;;;;;0.30;0.10;;;8.10;99.90;;;;;;5110989;28;20477;-90
2022/05/30 02:48:52;;;;;;;0.30;0.20;;;8.00;99.90;;;;;;5110406;28;20461;-90
2022/05/30 02:51:21;;;;;;;0.30;0.10;;;8.00;99.90;;;;;;5108306;28;20446;-91
2022/05/30 02:53:48;;;;;;;0.30;0.20;;;8.00;99.90;;;;;;5110501;28;20812;-90
2022/05/30 02:56:17;;;;;;;0.30;0.20;;;8.00;99.90;;;;;;5112520;28;20507;-89
2022/05/30 02:58:45;;;;;;;0.30;0.20;;;8.00;99.90;;;;;;5101268;28;20439;-91
2022/05/30 03:01:12;;;;;;;0.30;0.10;;;7.90;99.90;;;;;;5101941;28;20446;-89
2022/05/30 03:03:40;;;;;;;0.30;0.10;;;7.90;99.90;;;;;;5099490;28;20470;-90
2022/05/30 03:06:07;;;;;;;0.30;0.10;;;8.00;99.90;;;;;;5093313;28;20454;-90
2022/05/30 03:08:36;;;;;;;0.30;0.20;;;8.00;99.90;;;;;;5091088;28;20484;-90
2022/05/30 03:11:04;;;;;;;0.30;0.17;;;8.00;99.90;;;;;;5089636;28;20504;-90
2022/05/30 03:13:31;;;;;;;0.30;0.20;;;8.00;99.90;;;;;;5095082;28;20512;-91
2022/05/30 03:15:58;;;;;;;0.30;0.20;;;8.00;99.90;;;;;;5105759;28;20447;-90
2022/05/30 03:18:27;;;;;;;0.30;0.20;;;8.10;99.90;;;;;;5110679;28;20450;-90
2022/05/30 03:20:55;;;;;;;0.30;0.20;;;8.00;99.90;;;;;;5117103;28;20470;-91
2022/05/30 03:23:23;;;;;;;0.30;0.10;;;8.00;99.90;;;;;;5098177;28;21027;-91
2022/05/30 03:25:52;;;;;;;0.30;0.20;;;8.10;99.90;;;;;;5095550;28;20459;-91
2022/05/30 03:28:19;;;;;;;0.30;0.20;;;8.10;99.90;;;;;;5092839;28;20562;-92
2022/05/30 03:30:47;;;;;;;0.30;0.20;;;8.10;99.90;;;;;;5087121;28;20448;-91
2022/05/30 03:33:14;;;;;;;0.30;0.20;;;8.10;99.90;;;;;;5086792;28;21051;-90
2022/05/30 03:35:41;;;;;;;0.30;0.20;;;8.10;99.90;;;;;;5102222;28;20447;-91
2022/05/30 03:38:09;;;;;;;0.30;0.20;;;8.10;99.90;;;;;;5091761;28;20470;-92
2022/05/30 03:40:38;;;;;;;0.30;0.20;;;8.10;99.90;;;;;;5089406;28;20445;-89
2022/05/30 03:43:09;;;;;;;0.30;0.10;;;8.20;99.90;;;;;;5085501;28;21187;-89
2022/05/30 03:45:37;;;;;;;0.30;0.20;;;8.20;99.90;;;;;;5084525;28;20431;-89
2022/05/30 03:48:05;;;;;;;0.30;0.17;;;8.20;99.90;;;;;;5095095;28;20838;-91
2022/05/30 03:50:33;;;;;;;0.30;0.20;;;8.20;99.90;;;;;;5086779;28;20466;-91
2022/05/30 03:53:04;;;;;;;0.30;0.10;;;8.20;99.90;;;;;;5094670;28;20454;-91
2022/05/30 03:55:34;;;;;;;0.30;0.10;;;8.20;99.90;;;;;;5090601;28;20813;-89
2022/05/30 03:58:02;;;;;;;0.30;0.10;;;8.40;99.90;;;;;;5087611;28;20446;-92
2022/05/30 04:00:31;;;;;;;0.30;0.17;;;8.30;99.90;;;;;;5088702;28;21149;-90
2022/05/30 04:02:59;;;;;;;0.30;0.20;;;8.40;99.90;;;;;;5086066;28;21195;-91
2022/05/30 04:05:26;;;;;;;0.30;0.20;;;8.50;99.90;;;;;;5090601;28;20451;-91
2022/05/30 04:07:54;;;;;;;0.30;0.10;;;8.70;99.90;;;;;;5087672;28;20527;-90
2022/05/30 04:10:22;;;;;;;0.30;0.13;;;8.80;99.90;;;;;;5085804;28;20461;-91
2022/05/30 04:12:49;;;;;;;0.30;0.20;;;8.70;99.90;;;;;;5086070;28;21121;-90
2022/05/30 04:15:20;;;;;;;0.30;0.20;;;8.80;99.90;;;;;;5091088;28;20462;-90
2022/05/30 04:17:49;;;;;;;0.30;0.10;;;8.70;99.90;;;;;;5089463;28;20466;-90
2022/05/30 04:20:17;;;;;;;0.30;0.17;;;8.60;99.90;;;;;;5089089;28;20447;-90
2022/05/30 04:22:45;;;;;;;0.30;0.20;;;8.40;99.90;;;;;;5088013;28;20496;-90
2022/05/30 04:25:13;;;;;;;0.30;0.20;;;8.40;99.90;;;;;;5085057;28;20521;-90
2022/05/30 04:27:40;;;;;;;0.30;0.20;;;8.40;99.90;;;;;;5084064;28;20573;-90
2022/05/30 04:30:09;;;;;;;0.30;0.20;;;8.50;99.90;;;;;;5082659;28;20438;-90
2022/05/30 04:32:36;;;;;;;0.40;0.30;;;8.60;99.90;;;;;;5091544;28;20469;-90
2022/05/30 04:35:05;;;;;;;0.30;0.20;;;8.80;99.90;;;;;;5086623;28;20435;-89
2022/05/30 04:37:32;;;;;;;0.30;0.10;;;9.00;99.90;;;;;;5084999;28;20839;-88
2022/05/30 04:39:59;;;;;;;0.30;0.20;;;9.20;99.90;;;;;;5083258;28;20520;-89
2022/05/30 04:42:26;;;;;;;0.30;0.20;;;9.20;99.90;;;;;;5089431;28;20443;-89
2022/05/30 04:44:53;;;;;;;0.30;0.13;;;9.20;99.90;;;;;;5087681;28;20435;-90
2022/05/30 04:47:21;;;;;;;0.30;0.20;;;9.30;99.90;;;;;;5089393;28;20674;-93
2022/05/30 04:49:49;;;;;;;0.30;0.20;;;9.20;99.90;;;;;;5084787;28;20451;-89
2022/05/30 04:52:18;;;;;;;0.30;0.10;;;9.30;99.90;;;;;;5083578;28;20458;-92
2022/05/30 04:54:46;;;;;;;0.30;0.20;;;9.30;99.90;;;;;;5091865;28;20450;-96
2022/05/30 04:57:14;;;;;;;0.30;0.17;;;9.20;99.90;;;;;;5094539;28;20479;-95
2022/05/30 04:59:45;;;;;;;0.30;0.20;;;9.10;99.90;;;;;;5093712;28;20460;-96
2022/05/30 05:02:14;;;;;;;0.30;0.20;;;8.80;99.90;;;;;;5085109;28;20513;-95
2022/05/30 05:10:48;;;;;;;0.30;0.20;;;9.20;99.90;;;;;;5090914;28;20435;-96
2022/05/30 05:13:17;;;;;;;0.30;0.13;;;9.20;99.90;;;;;;5090096;28;20516;-95
2022/05/30 05:15:44;;;;;;;0.30;0.20;;;9.30;99.90;;;;;;5091676;28;20459;-93
2022/05/30 05:18:12;;;;;;;0.30;0.20;;;9.40;99.90;;;;;;5089640;28;20526;-96
2022/05/30 05:20:42;;;;;;;0.30;0.17;;;9.40;99.90;;;;;;5089487;28;20836;-95
2022/05/30 05:23:15;;;;;;;0.30;0.20;;;9.40;99.90;;;;;;5093792;28;20492;-96
2022/05/30 05:25:44;;;;;;;0.30;0.10;;;9.70;99.90;;;;;;5085440;28;20533;-96
2022/05/30 05:28:13;;;;;;;0.30;0.20;;;9.80;99.90;;;;;;5089091;28;20583;-96
2022/05/30 05:30:44;;;;;;;0.30;0.20;;;9.80;99.90;;;;;;5095642;28;20509;-96
2022/05/30 05:33:16;;;;;;;0.30;0.20;;;9.80;99.90;;;;;;5117218;28;20438;-96
2022/05/30 05:38:30;;;;;;;0.30;0.20;;;9.70;99.90;;;;;;5113516;28;20776;-96
2022/05/30 05:40:59;;;;;;;0.30;0.10;;;9.80;99.90;;;;;;5106328;28;20566;-96
2022/05/30 05:43:28;;;;;;;0.30;0.10;;;9.70;99.90;;;;;;5105183;28;20554;-95
2022/05/30 05:45:56;;;;;;;0.30;0.20;;;9.80;99.90;;;;;;5087329;28;20566;-96
2022/05/30 05:48:24;;;;;;;0.30;0.20;;;9.80;99.90;;;;;;5086470;28;20451;-96
2022/05/30 05:50:53;;;;;;;0.30;0.20;;;9.70;99.90;;;;;;5096430;28;20810;-96
2022/05/30 05:53:21;;;;;;;0.30;0.10;;;9.60;99.90;;;;;;5089337;28;20668;-96
2022/05/30 05:55:52;;;;;;;0.30;0.20;;;9.60;99.90;;;;;;5086630;28;20490;-96
2022/05/30 05:58:20;;;;;;;0.30;0.20;;;9.60;99.90;;;;;;5091961;28;20462;-96
2022/05/30 06:00:53;;;;;;;0.30;0.20;;;9.90;99.90;;;;;;5097393;28;21120;-96
2022/05/30 06:06:15;;;;;;;0.30;0.20;;;10.00;99.90;;;;;;5107511;28;20443;-95
2022/05/30 06:08:43;;;;;;;0.30;0.20;;;10.20;99.90;;;;;;5088812;28;20941;-95
2022/05/30 06:11:31;;;;;;;0.47;0.40;;;10.70;99.90;;;;;;5091564;28;20549;-93
2022/05/30 06:14:25;;;;;;;0.30;0.20;;;10.80;99.90;;;;;;5102224;28;20546;-96
2022/05/30 06:16:53;;;;;;;0.30;0.27;;;10.60;99.90;;;;;;5090572;28;20451;-94
2022/05/30 06:19:21;;;;;;;0.30;0.20;;;10.90;99.90;;;;;;5100170;28;20531;-95
2022/05/30 06:21:49;;;;;;;0.30;0.20;;;10.80;99.90;;;;;;5088501;28;20459;-90
2022/05/30 06:24:16;;;;;;;0.30;0.17;;;10.90;99.90;;;;;;5086918;28;20478;-92
2022/05/30 06:26:45;;;;;;;0.37;0.30;;;11.20;99.90;;;;;;5105481;28;20454;-90
2022/05/30 06:29:12;;;;;;;0.30;0.20;;;11.10;99.90;;;;;;5105394;28;20950;-91
2022/05/30 06:31:40;;;;;;;0.30;0.20;;;11.40;99.90;;;;;;5107994;28;20461;-90
2022/05/30 06:34:07;;;;;;;0.30;0.20;;;11.40;99.90;;;;;;5098301;28;20455;-91
2022/05/30 06:36:36;;;;;;;0.30;0.20;;;11.10;99.90;;;;;;5088294;28;20897;-92
2022/05/30 06:39:03;;;;;;;0.30;0.20;;;11.10;99.90;;;;;;5083868;28;20538;-92
2022/05/30 06:41:32;;;;;;;0.30;0.20;;;11.10;99.90;;;;;;5089843;28;20488;-92
2022/05/30 06:44:04;;;;;;;0.30;0.20;;;11.10;99.90;;;;;;5085851;28;20466;-92
2022/05/30 06:46:34;;;;;;;0.30;0.20;;;11.00;99.90;;;;;;5087980;28;20465;-92
2022/05/30 06:49:01;;;;;;;0.40;0.20;;;11.40;99.90;;;;;;5090791;27;20460;-92
2022/05/30 06:51:31;;;;;;;0.30;0.20;;;12.10;99.90;;;;;;5091130;28;20458;-92
2022/05/30 06:53:59;;;;;;;0.40;0.30;;;12.70;99.90;;;;;;5088349;28;20871;-92
2022/05/30 06:56:28;;;;;;;0.30;0.20;;;13.10;99.90;;;;;;5088393;28;20455;-90
2022/05/30 06:58:54;;;;;;;0.80;0.77;;;13.40;99.90;;;;;;5081623;28;20505;-92
2022/05/30 07:01:25;;;;;;;0.30;0.20;;;13.80;99.90;;;;;;5087473;28;20464;-93
2022/05/30 07:03:52;;;;;;;0.30;0.20;;;13.70;99.90;;;;;;5076316;28;20485;-94
2022/05/30 07:06:22;;;;;;;0.30;0.20;;;13.80;99.90;;;;;;5086692;28;20913;-90
2022/05/30 07:08:49;;;;;;;0.30;0.30;;;14.00;99.90;;;;;;5087944;28;20458;-92
2022/05/30 07:11:18;;;;;;;0.40;0.30;;;13.80;99.90;;;;;;5084812;28;20451;-90
2022/05/30 07:13:46;;;;;;;0.60;0.30;;;13.60;99.90;;;;;;5078324;28;20965;-90
2022/05/30 07:16:13;;;;;;;0.30;0.20;;;13.10;99.90;;;;;;5088361;28;20946;-90
2022/05/30 07:18:43;;;;;;;0.30;0.20;;;13.10;99.90;;;;;;5084576;28;20472;-91
2022/05/30 07:21:12;;;;;;;0.30;0.20;;;13.00;99.90;;;;;;5081482;28;20453;-91
2022/05/30 07:23:39;;;;;;;0.30;0.20;;;12.80;99.90;;;;;;5083938;28;20836;-92
2022/05/30 07:26:09;;;;;;;0.30;0.20;;;12.70;99.90;;;;;;5087107;28;20447;-90
2022/05/30 07:28:36;;;;;;;0.30;0.20;;;12.30;99.90;;;;;;5085508;28;20454;-89
2022/05/30 07:31:05;;;;;;;0.30;0.20;;;12.00;99.90;;;;;;5087790;28;20540;-92
2022/05/30 07:33:33;;;;;;;0.83;0.83;;;11.90;99.90;;;;;;5085164;28;20555;-90
2022/05/30 07:36:05;;;;;;;0.40;0.30;;;11.90;99.90;;;;;;5085696;28;20466;-95
2022/05/30 07:38:34;;;;;;;0.40;0.30;;;11.80;99.90;;;;;;5086143;28;20972;-90
2022/05/30 07:41:01;;;;;;;0.30;0.20;;;11.70;99.90;;;;;;5086770;28;21080;-89
2022/05/30 07:43:28;;;;;;;0.30;0.20;;;12.00;99.90;;;;;;5087536;28;20476;-90
2022/05/30 07:46:00;;;;;;;0.40;0.20;;;12.30;99.90;;;;;;5090206;28;20455;-89
2022/05/30 07:48:27;;;;;;;0.30;0.20;;;12.20;99.90;;;;;;5087376;28;20456;-91
2022/05/30 07:50:56;;;;;;;0.30;0.20;;;12.60;99.90;;;;;;5085535;28;21166;-93
2022/05/30 07:53:25;;;;;;;0.30;0.20;;;13.00;99.90;;;;;;5085501;28;20524;-89
2022/05/30 07:55:52;;;;;;;0.40;0.20;;;13.60;99.90;;;;;;5082819;28;20461;-89
2022/05/30 07:58:19;;;;;;;0.30;0.20;;;13.60;99.90;;;;;;5089447;28;20455;-89
2022/05/30 08:00:50;;;;;;;0.30;0.20;;;13.70;99.90;;;;;;5093601;28;20525;-91
2022/05/30 08:03:17;;;;;;;0.30;0.20;;;14.10;99.90;;;;;;5084128;28;20500;-89
2022/05/30 08:05:46;;;;;;;0.70;0.53;;;14.00;99.90;;;;;;5086114;28;20908;-91
2022/05/30 08:08:14;;;;;;;0.30;0.30;;;14.10;99.90;;;;;;5097595;28;20483;-91
2022/05/30 08:10:42;;;;;;;0.30;0.20;;;13.60;99.90;;;;;;5104961;28;20476;-91
2022/05/30 08:13:09;;;;;;;0.30;0.20;;;13.60;99.90;;;;;;5109836;28;20462;-90
2022/05/30 08:15:36;;;;;;;1.43;0.33;;;14.10;99.90;;;;;;5113182;28;20476;-92
2022/05/30 08:18:03;;;;;;;0.30;0.20;;;14.40;99.90;;;;;;5117858;28;20486;-88
2022/05/30 08:20:33;;;;;;;0.30;0.20;;;14.00;99.90;;;;;;5113929;28;20512;-91
2022/05/30 08:23:00;;;;;;;0.30;0.20;;;14.20;99.90;;;;;;5112403;28;20495;-89
2022/05/30 08:25:27;;;;;;;0.30;0.20;;;14.50;99.90;;;;;;5115078;28;20503;-90
2022/05/30 08:27:55;;;;;;;0.30;0.20;;;14.30;99.90;;;;;;5116184;28;20441;-90
2022/05/30 08:30:22;;;;;;;0.30;0.20;;;13.70;99.90;;;;;;5116481;28;20469;-89
2022/05/30 08:32:50;;;;;;;0.30;0.20;;;13.60;99.90;;;;;;5113942;28;20712;-89
2022/05/30 08:35:20;;;;;;;0.30;0.20;;;13.70;99.90;;;;;;5112008;28;20442;-91
2022/05/30 08:37:48;;;;;;;0.30;0.20;;;13.80;99.90;;;;;;5115735;28;20462;-89
2022/05/30 08:43:11;;;;;;;0.30;0.20;;;14.60;99.90;;;;;;5101671;28;20455;-89
2022/05/30 08:45:39;;;;;;;0.30;0.20;;;14.80;99.90;;;;;;5098734;28;20481;-88
2022/05/30 08:48:12;;;;;;;0.30;0.20;;;14.90;99.90;;;;;;5088944;28;20460;-87
2022/05/30 08:50:45;;;;;;;3.50;0.53;;;15.10;99.90;;;;;;5090186;28;20470;-89
2022/05/30 08:53:39;;;;;;;0.30;0.20;;;15.50;99.90;;;;;;5098186;28;20450;-89
2022/05/30 08:56:16;;;;;;;0.30;0.20;;;15.60;99.90;;;;;;5094835;28;20473;-88
2022/05/30 08:58:54;;;;;;;0.30;0.20;;;15.40;99.90;;;;;;5092110;28;20447;-88
2022/05/30 09:01:34;;;;;;;0.30;0.20;;;15.20;99.90;;;;;;5094995;28;20498;-85
2022/05/30 09:04:16;;;;;;;0.30;0.20;;;15.10;99.90;;;;;;5098011;28;20495;-87
2022/05/30 09:06:46;;;;;;;0.30;0.20;;;14.90;99.90;;;;;;5093244;28;20476;-87
2022/05/30 09:09:22;;;;;;;0.30;0.20;;;15.10;99.90;;;;;;5092794;28;20990;-85
2022/05/30 09:11:53;;;;;;;0.30;0.20;;;15.40;99.90;;;;;;5097590;28;20456;-86
2022/05/30 09:14:32;;;;;;;0.30;0.20;;;15.70;99.90;;;;;;5090674;28;20447;-87
2022/05/30 09:17:04;;;;;;;0.30;0.20;;;15.70;99.90;;;;;;5096941;28;20447;-87
2022/05/30 09:19:31;;;;;;;0.70;0.70;;;15.60;99.90;;;;;;5096197;28;20465;-87
2022/05/30 09:22:01;;;;;;;0.30;0.20;;;15.60;99.90;;;;;;5093113;28;20464;-87
2022/05/30 09:24:29;;;;;;;0.40;0.30;;;15.30;99.90;;;;;;5089639;28;20491;-87
2022/05/30 09:26:57;;;;;;;0.30;0.30;;;15.70;99.90;;;;;;5090380;28;20939;-89
2022/05/30 09:29:29;;;;;;;0.30;0.20;;;16.30;99.90;;;;;;5085098;28;20506;-87
2022/05/30 09:32:08;;;;;;;0.30;0.23;;;16.10;98.10;;;;;;5088316;28;20778;-87
2022/05/30 09:34:45;;;;;;;0.30;0.20;;;16.30;99.90;;;;;;5093302;28;20696;-91
2022/05/30 09:37:25;;;;;;;0.30;0.20;;;16.10;98.30;;;;;;5095807;28;20449;-86
2022/05/30 09:39:52;;;;;;;0.30;0.20;;;16.10;98.10;;;;;;5110736;28;20456;-87
2022/05/30 09:42:29;;;;;;;0.30;0.20;;;16.10;99.20;;;;;;5098695;28;20457;-88
2022/05/30 09:45:07;;;;;;;1.03;0.77;;;16.20;99.50;;;;;;5090468;28;21012;-87
2022/05/30 09:47:34;;;;;;;0.30;0.23;;;15.40;97.70;;;;;;5086370;28;20510;-89
2022/05/30 09:50:11;;;;;;;0.50;0.50;;;15.30;98.30;;;;;;5086928;28;20464;-88
2022/05/30 09:52:40;;;;;;;0.30;0.20;;;15.20;98.40;;;;;;5086869;28;20775;-87
2022/05/30 09:55:24;;;;;;;0.30;0.20;;;15.60;97.90;;;;;;5085154;28;20462;-87
2022/05/30 09:57:53;;;;;;;0.30;0.30;;;16.00;95.60;;;;;;5090718;28;20435;-90
2022/05/30 10:00:34;;;;;;;0.30;0.20;;;15.90;96.70;;;;;;5082680;28;20514;-87
2022/05/30 10:03:07;;;;;;;0.40;0.30;;;16.30;95.40;;;;;;5085262;28;20448;-87
2022/05/30 10:05:36;;;;;;;0.40;0.20;;;16.40;95.60;;;;;;5081076;28;21227;-86
2022/05/30 10:08:05;;;;;;;0.50;0.50;;;16.30;94.60;;;;;;5083922;28;20470;-87
2022/05/30 10:10:37;;;;;;;0.30;0.20;;;16.10;94.60;;;;;;5087766;28;20567;-87
2022/05/30 10:13:06;;;;;;;0.30;0.20;;;16.20;95.00;;;;;;5081710;28;20526;-89
2022/05/30 10:15:37;;;;;;;0.30;0.20;;;16.10;93.20;;;;;;5079289;28;20458;-86
2022/05/30 10:18:25;;;;;;;0.30;0.20;;;15.80;92.30;;;;;;5078987;28;20449;-86
2022/05/30 10:21:05;;;;;;;0.30;0.20;;;15.80;93.40;;;;;;5083393;28;20475;-89
2022/05/30 10:29:32;;;;;;;0.30;0.20;;;16.30;93.10;;;;;;5078557;28;20640;-86
2022/05/30 10:32:10;;;;;;;0.30;0.20;;;15.80;92.60;;;;;;5085666;28;20462;-85
2022/05/30 10:34:53;;;;;;;0.30;0.20;;;16.00;91.90;;;;;;5088740;28;20473;-88
2022/05/30 10:37:32;;;;;;;0.30;0.30;;;16.40;96.80;;;;;;5085059;28;20461;-86
2022/05/30 10:40:23;;;;;;;0.40;0.20;;;16.50;92.00;;;;;;5083934;28;20454;-86
2022/05/30 10:42:56;;;;;;;0.30;0.20;;;16.00;92.40;;;;;;5090999;28;20465;-86
2022/05/30 10:45:29;;;;;;;0.30;0.20;;;16.40;93.60;;;;;;5087429;28;20966;-82
2022/05/30 10:47:59;;;;;;;0.30;0.27;;;16.40;92.20;;;;;;5093427;28;20479;-84
2022/05/30 10:50:42;;;;;;;0.40;0.30;;;16.30;91.80;;;;;;5093860;28;20450;-86
2022/05/30 10:53:16;;;;;;;0.30;0.20;;;16.70;90.80;;;;;;5088394;28;20621;-87
2022/05/30 10:55:47;;;;;;;0.30;0.20;;;17.00;94.00;;;;;;5083597;28;20976;-87
2022/05/30 10:58:25;;;;;;;0.30;0.20;;;16.80;93.10;;;;;;5086383;28;20736;-88
2022/05/30 11:00:58;;;;;;;0.30;0.20;;;16.90;91.90;;;;;;5084124;28;20462;-87
2022/05/30 11:03:33;;;;;;;0.30;0.20;;;16.90;90.50;;;;;;5076543;28;20492;-86
2022/05/30 11:06:06;;;;;;;0.30;0.20;;;17.00;90.80;;;;;;5076284;28;21063;-87
2022/05/30 11:08:43;;;;;;;0.30;0.20;;;16.90;91.10;;;;;;5084430;28;20473;-87
2022/05/30 11:11:17;;;;;;;0.30;0.20;;;17.00;92.70;;;;;;5085860;28;20997;-88
2022/05/30 11:13:53;;;;;;;0.30;0.20;;;17.20;89.50;;;;;;5090450;28;20454;-89
2022/05/30 11:16:36;;;;;;;0.40;0.20;;;17.50;89.40;;;;;;5087622;28;20472;-91
2022/05/30 11:19:13;;;;;;;0.40;0.20;;;17.40;88.30;;;;;;5088122;28;20457;-87
2022/05/30 11:21:46;;;;;;;0.30;0.30;;;17.50;90.30;;;;;;5082231;28;20534;-87
2022/05/30 11:24:15;;;;;;;0.40;0.20;;;17.60;93.30;;;;;;5080396;28;20848;-87
2022/05/30 11:27:01;;;;;;;0.40;0.20;;;17.90;89.70;;;;;;5086115;28;20454;-87
2022/05/30 11:29:55;;;;;;;0.30;0.20;;;17.60;85.10;;;;;;5095029;28;20531;-90
2022/05/30 11:32:42;;;;;;;0.40;0.20;;;17.30;82.70;;;;;;5074556;28;20450;-87
2022/05/30 11:35:24;;;;;;;0.30;0.20;;;17.30;84.90;;;;;;5083135;28;20486;-90
2022/05/30 11:38:00;;;;;;;0.30;0.20;;;17.40;80.30;;;;;;5087307;28;20454;-86
2022/05/30 11:40:35;;;;;;;0.30;0.20;;;17.60;83.30;;;;;;5088250;28;20438;-92
2022/05/30 11:43:21;;;;;;;0.40;0.20;;;17.80;81.70;;;;;;5086839;28;21028;-91
2022/05/30 11:45:55;;;;;;;0.40;0.30;;;17.70;83.00;;;;;;5083607;28;20479;-88
2022/05/30 11:48:30;;;;;;;0.40;0.20;;;17.90;80.60;;;;;;5083370;28;20958;-87
2022/05/30 11:51:14;;;;;;;0.40;0.27;;;18.00;80.10;;;;;;5084463;28;20446;-87
2022/05/30 11:54:07;;;;;;;0.40;0.20;;;18.10;82.70;;;;;;5085945;28;20546;-87
2022/05/30 11:56:43;;;;;;;0.40;0.20;;;17.70;83.40;;;;;;5079576;28;20463;-87
2022/05/30 11:59:40;;;;;;;0.40;0.30;;;18.00;85.30;;;;;;5087434;28;20455;-86
2022/05/30 12:02:16;;;;;;;0.40;0.20;;;17.70;80.90;;;;;;5084290;28;21009;-87
2022/05/30 12:05:12;;;;;;;0.40;0.20;;;17.70;80.70;;;;;;5080920;28;21060;-88
2022/05/30 12:08:18;;;;;;;0.40;0.20;;;18.00;82.70;;;;;;5091327;28;20463;-88
2022/05/30 12:11:09;;;;;;;0.40;0.20;;;17.80;78.40;;;;;;5077939;28;21323;-89
2022/05/30 12:13:53;;;;;;;0.40;0.20;;;18.20;75.20;;;;;;5085735;28;20981;-88
2022/05/30 12:16:40;;;;;;;0.40;0.20;;;18.20;76.40;;;;;;5086147;28;20803;-86
2022/05/30 12:24:57;;;;;;;0.40;0.20;;;18.20;70.10;;;;;;5076107;28;20503;-87
2022/05/30 12:27:35;;;;;;;0.40;0.20;;;18.70;76.90;;;;;;5081135;28;20816;-86
2022/05/30 12:30:04;;;;;;;0.40;0.20;;;18.80;69.30;;;;;;5082553;28;20443;-86
2022/05/30 12:32:44;;;;;;;0.40;0.30;;;18.20;68.90;;;;;;5087049;28;20439;-86
2022/05/30 12:35:26;;;;;;;0.40;0.20;;;18.50;67.70;;;;;;5079406;28;20868;-84
2022/05/30 12:38:06;;;;;;;0.40;0.20;;;18.50;68.00;;;;;;5084808;28;20494;-90
2022/05/30 12:40:38;;;;;;;0.40;0.20;;;18.50;70.90;;;;;;5085469;28;20465;-88
2022/05/30 12:43:35;;;;;;;0.40;0.20;;;18.80;70.00;;;;;;5094708;28;20442;-87
2022/05/30 12:46:13;;;;;;;0.40;0.20;;;19.00;67.50;;;;;;5100177;28;20482;-86
2022/05/30 12:48:45;;;;;;;0.40;0.20;;;18.60;70.90;;;;;;5098268;28;20453;-86
2022/05/30 12:51:16;;;;;;;0.40;0.20;;;18.60;69.00;;;;;;5097005;28;20545;-86
2022/05/30 12:54:22;;;;;;;0.40;0.20;;;18.50;66.70;;;;;;5087320;28;20513;-86
2022/05/30 12:57:08;;;;;;;0.40;0.20;;;18.80;72.70;;;;;;5081619;28;20911;-87
2022/05/30 13:00:03;;;;;;;0.40;0.20;;;19.10;75.90;;;;;;5090819;28;20446;-87
2022/05/30 13:03:03;;;;;;;0.40;0.20;;;19.70;72.30;;;;;;5092934;28;20443;-88
2022/05/30 13:05:48;;;;;;;0.40;0.20;;;19.40;67.90;;;;;;5084775;28;20569;-89
2022/05/30 13:09:03;;;;;;;0.40;0.20;;;19.00;67.80;;;;;;5086329;28;20483;-87
2022/05/30 13:11:46;;;;;;;0.40;0.20;;;19.20;63.20;;;;;;5082689;28;20450;-89
2022/05/30 13:14:33;;;;;;;0.40;0.20;;;19.20;59.20;;;;;;5083694;28;20460;-87
2022/05/30 13:17:04;;;;;;;0.40;0.30;;;19.00;58.30;;;;;;5083621;28;21009;-86
2022/05/30 13:19:31;;;;;;;0.40;0.20;;;19.30;68.10;;;;;;5086273;28;20446;-86
2022/05/30 13:21:59;;;;;;;0.40;0.20;;;19.30;61.20;;;;;;5090142;28;20867;-85
2022/05/30 13:24:31;;;;;;;0.40;0.20;;;19.70;68.50;;;;;;5092841;28;20533;-88
2022/05/30 13:27:00;;;;;;;0.40;0.20;;;20.10;66.70;;;;;;5084826;28;20539;-86
2022/05/30 13:29:33;;;;;;;0.40;0.20;;;19.80;59.80;;;;;;5092176;28;20450;-87
2022/05/30 13:32:01;;;;;;;0.40;0.30;;;20.00;62.60;;;;;;5091192;28;20497;-86
2022/05/30 13:34:32;;;;;;;0.40;0.20;;;19.40;59.10;;;;;;5081114;28;20440;-89
2022/05/30 13:37:01;;;;;;;0.40;0.27;;;19.70;58.30;;;;;;5086800;28;20461;-86
2022/05/30 13:39:28;;;;;;;0.40;0.20;;;19.60;56.80;;;;;;5091248;28;20506;-86
2022/05/30 13:41:56;;;;;;;0.40;0.20;;;19.30;58.70;;;;;;5088316;28;20442;-93
2022/05/30 13:44:27;;;;;;;0.40;0.20;;;19.80;59.80;;;;;;5081260;28;20997;-85
2022/05/30 13:47:01;;;;;;;0.40;0.20;;;20.40;59.70;;;;;;5087403;28;20938;-89
2022/05/30 13:49:35;;;;;;;0.40;0.20;;;20.50;61.20;;;;;;5083526;28;20500;-86
2022/05/30 13:52:04;;;;;;;1.90;0.40;;;20.50;56.70;;;;;;5084876;28;20552;-85